Joy — V2EI9 — position and weather

sailwx.info

Track history (hours):
 
Tides and Currents Weather Stations Pressure Air Temp Water Temp Dewpoint Dewpoint Depression Visibility Wind Speed Wind Dir Waves Ship Positions

Joy

Last reported at 2016-Jul-25 13:07 UTC. Time now 2016-Jul-25 14:07 UTC.
Position N 57°34' E 009°44'.

; draft 5.5 m.

Type: Cargo ship. MMSI: 305444000.

Date/timePositionNaut miles runAvg speedWind from/ knotsBaromVisibWave heightAir tempDewpointWater temp
2016-Jul-25 13:07N 57°34' E 009°44'6 9.8
2016-Jul-25 12:33N 57°37' E 009°53'10 9.6
2016-Jul-25 11:33N 57°41' E 010°09'10 9.8
2016-Jul-25 10:33N 57°46' E 010°26'10 9.7
2016-Jul-25 09:34N 57°47' E 010°44'1010.3
2016-Jul-25 08:33N 57°41' E 010°60'1010.5
2016-Jul-25 07:33N 57°34' E 011°14'1110.8
2016-Jul-25 06:34N 57°26' E 011°27'1111.0
2016-Jul-25 05:34N 57°15' E 011°34'1010.4
2016-Jul-25 04:34N 57°06' E 011°41'1110.6
2016-Jul-25 03:33N 56°56' E 011°47'9 9.5
2016-Jul-25 02:33N 56°50' E 012°00'10 9.9
2016-Jul-25 01:32N 56°44' E 012°16'10 9.8
2016-Jul-25 00:33N 56°40' E 012°32'9 9.2
2016-Jul-24 23:33N 56°38' E 012°48'3 2.6
2016-Jul-24 22:31N 56°39' E 012°51'0 0.0
2016-Jul-24 21:13N 56°39' E 012°51'0 0.0
2016-Jul-24 04:31N 56°39' E 012°51'0 0.0
2016-Jul-24 03:31N 56°39' E 012°51'0 0.0
2016-Jul-24 02:22N 56°39' E 012°51'0 0.0
2016-Jul-24 01:25N 56°39' E 012°51'0 0.0
2016-Jul-24 00:31N 56°39' E 012°51'0 0.0
2016-Jul-23 23:25N 56°39' E 012°51'0 0.0
2016-Jul-23 22:31N 56°39' E 012°51'0 0.0
2016-Jul-23 21:31N 56°39' E 012°51'0 0.0
2016-Jul-23 20:31N 56°39' E 012°51'0 0.0
2016-Jul-23 19:31N 56°39' E 012°51'0 0.0
2016-Jul-23 18:31N 56°39' E 012°51'0 0.0
2016-Jul-23 17:31N 56°39' E 012°51'0 0.0
2016-Jul-23 13:24N 56°39' E 012°51'0 0.0
2016-Jul-23 04:30N 56°39' E 012°51'0 0.0
2016-Jul-23 01:24N 56°39' E 012°51'0 0.0
2016-Jul-23 00:30N 56°39' E 012°51'0 0.0
2016-Jul-22 14:18N 56°39' E 012°51'0 0.0
2016-Jul-22 13:18N 56°39' E 012°51'0 0.0
2016-Jul-22 09:33N 56°39' E 012°51'0 0.0
2016-Jul-22 08:27N 56°39' E 012°51'217198.4
2016-Jul-22 07:21N 53°32' E 009°41'0 0.0
2016-Jul-22 04:33N 53°32' E 009°41'0 0.0
2016-Jul-22 03:33N 53°32' E 009°41'0 0.0
2016-Jul-22 02:33N 53°32' E 009°41'0 0.0
2016-Jul-22 01:30N 53°32' E 009°41'0 0.0
2016-Jul-22 00:33N 53°32' E 009°41'0 0.0
2016-Jul-21 23:30N 53°32' E 009°41'0 0.0
2016-Jul-21 22:33N 53°32' E 009°41'0 0.0
2016-Jul-21 21:33N 53°32' E 009°41'0 0.0
2016-Jul-21 20:33N 53°32' E 009°41'0 0.0
2016-Jul-21 19:33N 53°32' E 009°41'0 0.0
2016-Jul-21 18:33N 53°32' E 009°41'0 0.0
2016-Jul-21 17:30N 53°32' E 009°41'0 0.0
2016-Jul-21 16:33N 53°32' E 009°41'0 0.0
2016-Jul-21 15:33N 53°32' E 009°41'0 0.0
2016-Jul-21 14:33N 53°32' E 009°41'0 0.0
2016-Jul-21 13:30N 53°32' E 009°41'0 0.0
2016-Jul-21 12:33N 53°32' E 009°41'0 0.0
2016-Jul-21 11:21N 53°32' E 009°41'0 0.0
2016-Jul-21 10:27N 53°32' E 009°41'0 0.0
2016-Jul-21 09:33N 53°32' E 009°41'0 0.0
2016-Jul-21 08:30N 53°32' E 009°41'0 0.0
2016-Jul-21 07:32N 53°32' E 009°41'0 0.0
2016-Jul-21 06:29N 53°32' E 009°41'0 0.0
2016-Jul-21 05:32N 53°32' E 009°41'0 0.0
2016-Jul-21 04:32N 53°32' E 009°41'0 0.0
2016-Jul-21 03:32N 53°32' E 009°41'0 0.0
2016-Jul-21 02:32N 53°32' E 009°41'0 0.0
2016-Jul-21 01:32N 53°32' E 009°41'0 0.0
2016-Jul-21 00:32N 53°32' E 009°41'0 0.0
2016-Jul-20 23:32N 53°32' E 009°41'0 0.0
2016-Jul-20 22:32N 53°32' E 009°41'217220.6
2016-Jul-20 21:33N 56°39' E 012°51'8 7.9
2016-Jul-20 20:33N 56°38' E 012°37'1110.7
2016-Jul-20 19:33N 56°42' E 012°18'1111.2
2016-Jul-20 18:33N 56°46' E 011°59'1110.6
2016-Jul-20 17:33N 56°54' E 011°47'1111.1
2016-Jul-20 16:33N 57°04' E 011°40'1111.1
2016-Jul-20 15:33N 57°14' E 011°33'1110.9
2016-Jul-20 14:33N 57°25' E 011°26'1010.3
2016-Jul-20 13:33N 57°33' E 011°14'1110.5
2016-Jul-20 12:33N 57°40' E 010°59'1110.6
2016-Jul-20 11:32N 57°47' E 010°44'1110.3
2016-Jul-20 10:29N 57°44' E 010°24'1010.9
2016-Jul-20 09:32N 57°40' E 010°06'248247.4
2016-Jul-20 08:32N 53°32' E 009°41'0 0.0
2016-Jul-20 07:32N 53°32' E 009°41'0 0.0
2016-Jul-20 06:32N 53°32' E 009°41'0 0.0
2016-Jul-20 05:32N 53°32' E 009°41'0 0.0
2016-Jul-20 04:32N 53°32' E 009°41'0 0.0
2016-Jul-20 03:32N 53°32' E 009°41'0 0.0
2016-Jul-20 02:32N 53°32' E 009°41'0 0.0
2016-Jul-20 01:32N 53°32' E 009°41'0 0.0
2016-Jul-20 00:32N 53°32' E 009°41'0 0.0
2016-Jul-19 23:29N 53°32' E 009°41'0 0.0
2016-Jul-19 22:32N 53°32' E 009°41'0 0.0
2016-Jul-19 21:32N 53°32' E 009°41'171127.2
2016-Jul-19 20:11N 55°58' E 007°06'711.0
2016-Jul-19 19:33N 55°52' E 006°59'1111.1
2016-Jul-19 18:33N 55°42' E 006°49'1111.1
2016-Jul-19 17:33N 55°33' E 006°39'1110.9
2016-Jul-19 16:33N 55°23' E 006°29'158153.0
2016-Jul-19 15:31N 53°32' E 009°41'0 0.0
2016-Jul-19 14:31N 53°32' E 009°41'0 0.0
2016-Jul-19 13:31N 53°32' E 009°41'0 0.0
2016-Jul-19 12:31N 53°32' E 009°41'0 0.0
2016-Jul-19 11:25N 53°32' E 009°41'158135.0
2016-Jul-19 10:15N 54°24' E 005°27'811.2
2016-Jul-19 09:33N 54°18' E 005°20'1111.3
2016-Jul-19 08:33N 54°08' E 005°11'1111.3
2016-Jul-19 07:33N 53°57' E 005°03'3411.5
2016-Jul-19 04:33N 53°25' E 004°43'1312.5
2016-Jul-19 03:33N 53°14' E 004°34'1212.4
2016-Jul-19 02:33N 53°03' E 004°24'1211.9
2016-Jul-19 01:33N 52°52' E 004°15'1111.5
2016-Jul-19 00:33N 52°43' E 004°05'1110.9
2016-Jul-18 23:33N 52°35' E 003°52'1010.3
2016-Jul-18 22:33N 52°26' E 003°42'1010.0
2016-Jul-18 21:33N 52°17' E 003°39'8 7.7
2016-Jul-18 20:33N 52°09' E 003°42'0 0.0
2016-Jul-18 19:32N 52°09' E 003°43'0 0.0
2016-Jul-18 18:29N 52°09' E 003°43'0 0.0
2016-Jul-18 17:32N 52°09' E 003°43'0 0.1
2016-Jul-18 16:32N 52°10' E 003°43'0 0.0
2016-Jul-18 15:32N 52°10' E 003°43'0 0.0
2016-Jul-18 14:32N 52°10' E 003°43'0 0.0
2016-Jul-18 13:32N 52°10' E 003°43'0 0.0
2016-Jul-18 12:29N 52°10' E 003°43'0 0.1
2016-Jul-18 11:32N 52°09' E 003°43'0 0.0
2016-Jul-18 10:29N 52°09' E 003°43'0 0.0
2016-Jul-18 09:32N 52°09' E 003°43'0 0.0
2016-Jul-18 08:31N 52°09' E 003°43'0 0.0
2016-Jul-18 07:31N 52°09' E 003°43'0 0.0
2016-Jul-18 06:31N 52°09' E 003°43'0 0.0
2016-Jul-18 05:28N 52°09' E 003°43'0 0.1
2016-Jul-18 04:22N 52°10' E 003°43'0 0.0
2016-Jul-18 03:31N 52°10' E 003°43'0 0.0
2016-Jul-18 02:31N 52°10' E 003°43'0 0.0
2016-Jul-18 01:19N 52°10' E 003°43'0 0.0
2016-Jul-18 00:10N 52°10' E 003°43'0 0.0
2016-Jul-17 23:28N 52°10' E 003°43'0 0.1
2016-Jul-17 22:25N 52°09' E 003°43'0 0.0
2016-Jul-17 21:31N 52°10' E 003°43'0 0.0
2016-Jul-17 20:19N 52°09' E 003°43'0 0.0
2016-Jul-17 19:28N 52°09' E 003°43'0 0.0
2016-Jul-17 18:28N 52°09' E 003°43'0 0.1
2016-Jul-17 17:16N 52°10' E 003°43'0 0.1
2016-Jul-17 16:28N 52°10' E 003°43'0 0.0
2016-Jul-17 13:31N 52°10' E 003°43'0 0.0
2016-Jul-17 12:16N 52°10' E 003°43'0 0.0
2016-Jul-17 11:31N 52°10' E 003°43'0 0.0
2016-Jul-17 10:28N 52°10' E 003°43'0 0.1
2016-Jul-17 09:25N 52°09' E 003°43'0 0.0
2016-Jul-17 07:28N 52°09' E 003°43'0 0.0
2016-Jul-17 06:31N 52°09' E 003°43'0 0.0
2016-Jul-17 04:19N 52°10' E 003°43'0 0.0
2016-Jul-17 03:25N 52°10' E 003°43'0 0.0
2016-Jul-17 02:31N 52°10' E 003°43'0 0.0
2016-Jul-17 01:31N 52°10' E 003°43'0 0.0
2016-Jul-17 00:31N 52°10' E 003°43'0 0.0
2016-Jul-16 23:31N 52°10' E 003°43'0 0.0
2016-Jul-16 22:16N 52°10' E 003°43'0 0.0
2016-Jul-16 21:34N 52°10' E 003°43'0 0.0
2016-Jul-16 20:33N 52°10' E 003°43'0 0.1
2016-Jul-16 19:27N 52°09' E 003°43'0 0.0
2016-Jul-16 18:33N 52°09' E 003°43'0 0.0
2016-Jul-16 17:27N 52°09' E 003°43'0 0.1
2016-Jul-16 16:30N 52°10' E 003°43'0 0.0
2016-Jul-16 15:27N 52°10' E 003°43'0 0.0
2016-Jul-16 14:27N 52°10' E 003°43'0 0.0
2016-Jul-16 13:27N 52°10' E 003°43'0 0.0
2016-Jul-16 12:06N 52°10' E 003°43'0 0.0
2016-Jul-16 11:21N 52°10' E 003°43'0 0.0
2016-Jul-16 10:15N 52°10' E 003°43'0 0.0
2016-Jul-16 09:27N 52°10' E 003°43'0 0.0
2016-Jul-16 08:33N 52°10' E 003°43'0 0.1
2016-Jul-16 06:33N 52°09' E 003°43'0 0.0
2016-Jul-16 04:27N 52°10' E 003°43'0 0.0
2016-Jul-16 03:30N 52°10' E 003°43'0 0.0
2016-Jul-16 02:27N 52°10' E 003°43'0 0.0
2016-Jul-16 01:30N 52°10' E 003°43'0 0.0
2016-Jul-16 00:27N 52°10' E 003°43'0 0.0
2016-Jul-15 23:24N 52°10' E 003°43'0 0.0
2016-Jul-15 22:27N 52°10' E 003°43'0 0.0
2016-Jul-15 21:27N 52°10' E 003°43'0 0.0
2016-Jul-15 20:30N 52°10' E 003°43'0 0.0
2016-Jul-15 19:30N 52°10' E 003°43'0 0.1
2016-Jul-15 17:30N 52°09' E 003°43'0 0.0
2016-Jul-15 16:15N 52°09' E 003°43'0 0.0
2016-Jul-15 15:09N 52°10' E 003°43'0 0.0
2016-Jul-15 14:33N 52°10' E 003°43'0 0.0
2016-Jul-15 13:30N 52°10' E 003°43'  
Track history (hours):
 
Tides and Currents Weather Stations Pressure Air Temp Water Temp Dewpoint Dewpoint Depression Visibility Wind Speed Wind Dir Waves Ship Positions

Joy

Last reported at 2016-Jul-25 13:07 UTC. Time now 2016-Jul-25 14:07 UTC.
Position N 57°34' E 009°44'.

; draft 5.5 m.

Type: Cargo ship. MMSI: 305444000.

Date/timePositionNaut miles runAvg speedWind from/ knotsBaromVisibWave heightAir tempDewpointWater temp
2016-Jul-25 13:07N 57°34' E 009°44'6 9.8
2016-Jul-25 12:33N 57°37' E 009°53'10 9.6
2016-Jul-25 11:33N 57°41' E 010°09'10 9.8
2016-Jul-25 10:33N 57°46' E 010°26'10 9.7
2016-Jul-25 09:34N 57°47' E 010°44'1010.3
2016-Jul-25 08:33N 57°41' E 010°60'1010.5
2016-Jul-25 07:33N 57°34' E 011°14'1110.8
2016-Jul-25 06:34N 57°26' E 011°27'1111.0
2016-Jul-25 05:34N 57°15' E 011°34'1010.4
2016-Jul-25 04:34N 57°06' E 011°41'1110.6
2016-Jul-25 03:33N 56°56' E 011°47'9 9.5
2016-Jul-25 02:33N 56°50' E 012°00'10 9.9
2016-Jul-25 01:32N 56°44' E 012°16'10 9.8
2016-Jul-25 00:33N 56°40' E 012°32'9 9.2
2016-Jul-24 23:33N 56°38' E 012°48'3 2.6
2016-Jul-24 22:31N 56°39' E 012°51'0 0.0
2016-Jul-24 21:13N 56°39' E 012°51'0 0.0
2016-Jul-24 04:31N 56°39' E 012°51'0 0.0
2016-Jul-24 03:31N 56°39' E 012°51'0 0.0
2016-Jul-24 02:22N 56°39' E 012°51'0 0.0
2016-Jul-24 01:25N 56°39' E 012°51'0 0.0
2016-Jul-24 00:31N 56°39' E 012°51'0 0.0
2016-Jul-23 23:25N 56°39' E 012°51'0 0.0
2016-Jul-23 22:31N 56°39' E 012°51'0 0.0
2016-Jul-23 21:31N 56°39' E 012°51'0 0.0
2016-Jul-23 20:31N 56°39' E 012°51'0 0.0
2016-Jul-23 19:31N 56°39' E 012°51'0 0.0
2016-Jul-23 18:31N 56°39' E 012°51'0 0.0
2016-Jul-23 17:31N 56°39' E 012°51'0 0.0
2016-Jul-23 13:24N 56°39' E 012°51'0 0.0
2016-Jul-23 04:30N 56°39' E 012°51'0 0.0
2016-Jul-23 01:24N 56°39' E 012°51'0 0.0
2016-Jul-23 00:30N 56°39' E 012°51'0 0.0
2016-Jul-22 14:18N 56°39' E 012°51'0 0.0
2016-Jul-22 13:18N 56°39' E 012°51'0 0.0
2016-Jul-22 09:33N 56°39' E 012°51'0 0.0
2016-Jul-22 08:27N 56°39' E 012°51'217198.4
2016-Jul-22 07:21N 53°32' E 009°41'0 0.0
2016-Jul-22 04:33N 53°32' E 009°41'0 0.0
2016-Jul-22 03:33N 53°32' E 009°41'0 0.0
2016-Jul-22 02:33N 53°32' E 009°41'0 0.0
2016-Jul-22 01:30N 53°32' E 009°41'0 0.0
2016-Jul-22 00:33N 53°32' E 009°41'0 0.0
2016-Jul-21 23:30N 53°32' E 009°41'0 0.0
2016-Jul-21 22:33N 53°32' E 009°41'0 0.0
2016-Jul-21 21:33N 53°32' E 009°41'0 0.0
2016-Jul-21 20:33N 53°32' E 009°41'0 0.0
2016-Jul-21 19:33N 53°32' E 009°41'0 0.0
2016-Jul-21 18:33N 53°32' E 009°41'0 0.0
2016-Jul-21 17:30N 53°32' E 009°41'0 0.0
2016-Jul-21 16:33N 53°32' E 009°41'0 0.0
2016-Jul-21 15:33N 53°32' E 009°41'0 0.0
2016-Jul-21 14:33N 53°32' E 009°41'0 0.0
2016-Jul-21 13:30N 53°32' E 009°41'0 0.0
2016-Jul-21 12:33N 53°32' E 009°41'0 0.0
2016-Jul-21 11:21N 53°32' E 009°41'0 0.0
2016-Jul-21 10:27N 53°32' E 009°41'0 0.0
2016-Jul-21 09:33N 53°32' E 009°41'0 0.0
2016-Jul-21 08:30N 53°32' E 009°41'0 0.0
2016-Jul-21 07:32N 53°32' E 009°41'0 0.0
2016-Jul-21 06:29N 53°32' E 009°41'0 0.0
2016-Jul-21 05:32N 53°32' E 009°41'0 0.0
2016-Jul-21 04:32N 53°32' E 009°41'0 0.0
2016-Jul-21 03:32N 53°32' E 009°41'0 0.0
2016-Jul-21 02:32N 53°32' E 009°41'0 0.0
2016-Jul-21 01:32N 53°32' E 009°41'0 0.0
2016-Jul-21 00:32N 53°32' E 009°41'0 0.0
2016-Jul-20 23:32N 53°32' E 009°41'0 0.0
2016-Jul-20 22:32N 53°32' E 009°41'217220.6
2016-Jul-20 21:33N 56°39' E 012°51'8 7.9
2016-Jul-20 20:33N 56°38' E 012°37'1110.7
2016-Jul-20 19:33N 56°42' E 012°18'1111.2
2016-Jul-20 18:33N 56°46' E 011°59'1110.6
2016-Jul-20 17:33N 56°54' E 011°47'1111.1
2016-Jul-20 16:33N 57°04' E 011°40'1111.1
2016-Jul-20 15:33N 57°14' E 011°33'1110.9
2016-Jul-20 14:33N 57°25' E 011°26'1010.3
2016-Jul-20 13:33N 57°33' E 011°14'1110.5
2016-Jul-20 12:33N 57°40' E 010°59'1110.6
2016-Jul-20 11:32N 57°47' E 010°44'1110.3
2016-Jul-20 10:29N 57°44' E 010°24'1010.9
2016-Jul-20 09:32N 57°40' E 010°06'248247.4
2016-Jul-20 08:32N 53°32' E 009°41'0 0.0
2016-Jul-20 07:32N 53°32' E 009°41'0 0.0
2016-Jul-20 06:32N 53°32' E 009°41'0 0.0
2016-Jul-20 05:32N 53°32' E 009°41'0 0.0
2016-Jul-20 04:32N 53°32' E 009°41'0 0.0
2016-Jul-20 03:32N 53°32' E 009°41'0 0.0
2016-Jul-20 02:32N 53°32' E 009°41'0 0.0
2016-Jul-20 01:32N 53°32' E 009°41'0 0.0
2016-Jul-20 00:32N 53°32' E 009°41'0 0.0
2016-Jul-19 23:29N 53°32' E 009°41'0 0.0
2016-Jul-19 22:32N 53°32' E 009°41'0 0.0
2016-Jul-19 21:32N 53°32' E 009°41'171127.2
2016-Jul-19 20:11N 55°58' E 007°06'711.0
2016-Jul-19 19:33N 55°52' E 006°59'1111.1
2016-Jul-19 18:33N 55°42' E 006°49'1111.1
2016-Jul-19 17:33N 55°33' E 006°39'1110.9
2016-Jul-19 16:33N 55°23' E 006°29'158153.0
2016-Jul-19 15:31N 53°32' E 009°41'0 0.0
2016-Jul-19 14:31N 53°32' E 009°41'0 0.0
2016-Jul-19 13:31N 53°32' E 009°41'0 0.0
2016-Jul-19 12:31N 53°32' E 009°41'0 0.0
2016-Jul-19 11:25N 53°32' E 009°41'158135.0
2016-Jul-19 10:15N 54°24' E 005°27'811.2
2016-Jul-19 09:33N 54°18' E 005°20'1111.3
2016-Jul-19 08:33N 54°08' E 005°11'1111.3
2016-Jul-19 07:33N 53°57' E 005°03'3411.5
2016-Jul-19 04:33N 53°25' E 004°43'1312.5
2016-Jul-19 03:33N 53°14' E 004°34'1212.4
2016-Jul-19 02:33N 53°03' E 004°24'1211.9
2016-Jul-19 01:33N 52°52' E 004°15'1111.5
2016-Jul-19 00:33N 52°43' E 004°05'1110.9
2016-Jul-18 23:33N 52°35' E 003°52'1010.3
2016-Jul-18 22:33N 52°26' E 003°42'1010.0
2016-Jul-18 21:33N 52°17' E 003°39'8 7.7
2016-Jul-18 20:33N 52°09' E 003°42'0 0.0
2016-Jul-18 19:32N 52°09' E 003°43'0 0.0
2016-Jul-18 18:29N 52°09' E 003°43'0 0.0
2016-Jul-18 17:32N 52°09' E 003°43'0 0.1
2016-Jul-18 16:32N 52°10' E 003°43'0 0.0
2016-Jul-18 15:32N 52°10' E 003°43'0 0.0
2016-Jul-18 14:32N 52°10' E 003°43'0 0.0
2016-Jul-18 13:32N 52°10' E 003°43'0 0.0
2016-Jul-18 12:29N 52°10' E 003°43'0 0.1
2016-Jul-18 11:32N 52°09' E 003°43'0 0.0
2016-Jul-18 10:29N 52°09' E 003°43'0 0.0
2016-Jul-18 09:32N 52°09' E 003°43'0 0.0
2016-Jul-18 08:31N 52°09' E 003°43'0 0.0
2016-Jul-18 07:31N 52°09' E 003°43'0 0.0
2016-Jul-18 06:31N 52°09' E 003°43'0 0.0
2016-Jul-18 05:28N 52°09' E 003°43'0 0.1
2016-Jul-18 04:22N 52°10' E 003°43'0 0.0
2016-Jul-18 03:31N 52°10' E 003°43'0 0.0
2016-Jul-18 02:31N 52°10' E 003°43'0 0.0
2016-Jul-18 01:19N 52°10' E 003°43'0 0.0
2016-Jul-18 00:10N 52°10' E 003°43'0 0.0
2016-Jul-17 23:28N 52°10' E 003°43'0 0.1
2016-Jul-17 22:25N 52°09' E 003°43'0 0.0
2016-Jul-17 21:31N 52°10' E 003°43'0 0.0
2016-Jul-17 20:19N 52°09' E 003°43'0 0.0
2016-Jul-17 19:28N 52°09' E 003°43'0 0.0
2016-Jul-17 18:28N 52°09' E 003°43'0 0.1
2016-Jul-17 17:16N 52°10' E 003°43'0 0.1
2016-Jul-17 16:28N 52°10' E 003°43'0 0.0
2016-Jul-17 13:31N 52°10' E 003°43'0 0.0
2016-Jul-17 12:16N 52°10' E 003°43'0 0.0
2016-Jul-17 11:31N 52°10' E 003°43'0 0.0
2016-Jul-17 10:28N 52°10' E 003°43'0 0.1
2016-Jul-17 09:25N 52°09' E 003°43'0 0.0
2016-Jul-17 07:28N 52°09' E 003°43'0 0.0
2016-Jul-17 06:31N 52°09' E 003°43'0 0.0
2016-Jul-17 04:19N 52°10' E 003°43'0 0.0
2016-Jul-17 03:25N 52°10' E 003°43'0 0.0
2016-Jul-17 02:31N 52°10' E 003°43'0 0.0
2016-Jul-17 01:31N 52°10' E 003°43'0 0.0
2016-Jul-17 00:31N 52°10' E 003°43'0 0.0
2016-Jul-16 23:31N 52°10' E 003°43'0 0.0
2016-Jul-16 22:16N 52°10' E 003°43'0 0.0
2016-Jul-16 21:34N 52°10' E 003°43'0 0.0
2016-Jul-16 20:33N 52°10' E 003°43'0 0.1
2016-Jul-16 19:27N 52°09' E 003°43'0 0.0
2016-Jul-16 18:33N 52°09' E 003°43'0 0.0
2016-Jul-16 17:27N 52°09' E 003°43'0 0.1
2016-Jul-16 16:30N 52°10' E 003°43'0 0.0
2016-Jul-16 15:27N 52°10' E 003°43'0 0.0
2016-Jul-16 14:27N 52°10' E 003°43'0 0.0
2016-Jul-16 13:27N 52°10' E 003°43'0 0.0
2016-Jul-16 12:06N 52°10' E 003°43'0 0.0
2016-Jul-16 11:21N 52°10' E 003°43'0 0.0
2016-Jul-16 10:15N 52°10' E 003°43'0 0.0
2016-Jul-16 09:27N 52°10' E 003°43'0 0.0
2016-Jul-16 08:33N 52°10' E 003°43'0 0.1
2016-Jul-16 06:33N 52°09' E 003°43'0 0.0
2016-Jul-16 04:27N 52°10' E 003°43'0 0.0
2016-Jul-16 03:30N 52°10' E 003°43'0 0.0
2016-Jul-16 02:27N 52°10' E 003°43'0 0.0
2016-Jul-16 01:30N 52°10' E 003°43'0 0.0
2016-Jul-16 00:27N 52°10' E 003°43'0 0.0
2016-Jul-15 23:24N 52°10' E 003°43'0 0.0
2016-Jul-15 22:27N 52°10' E 003°43'0 0.0
2016-Jul-15 21:27N 52°10' E 003°43'0 0.0
2016-Jul-15 20:30N 52°10' E 003°43'0 0.0
2016-Jul-15 19:30N 52°10' E 003°43'0 0.1
2016-Jul-15 17:30N 52°09' E 003°43'0 0.0
2016-Jul-15 16:15N 52°09' E 003°43'0 0.0
2016-Jul-15 15:09N 52°10' E 003°43'0 0.0
2016-Jul-15 14:33N 52°10' E 003°43'0 0.0
2016-Jul-15 13:30N 52°10' E 003°43'  

Dump ship's entire track history